createdAt,value
2022-12-25T00:01:33.931Z,8.29
2022-12-25T00:04:00.754Z,8.32
2022-12-25T00:06:27.932Z,8.36
2022-12-25T00:08:54.379Z,8.42
2022-12-25T00:11:21.444Z,8.47
2022-12-25T00:13:49.073Z,8.43
2022-12-25T00:16:26.952Z,8.43
2022-12-25T00:18:55.750Z,8.47
2022-12-25T00:21:22.523Z,8.42
2022-12-25T00:23:54.624Z,8.46
2022-12-25T00:26:21.620Z,8.49
2022-12-25T00:28:48.222Z,8.33
2022-12-25T00:31:17.714Z,8.44
2022-12-25T00:33:46.936Z,8.42
2022-12-25T00:36:15.717Z,8.40
2022-12-25T00:38:42.759Z,8.47
2022-12-25T00:41:11.714Z,8.46
2022-12-25T00:43:38.795Z,8.50
2022-12-25T00:46:07.022Z,8.60
2022-12-25T00:48:35.053Z,8.64
2022-12-25T00:51:04.567Z,8.60
2022-12-25T00:53:31.119Z,8.68
2022-12-25T00:56:04.423Z,8.74
2022-12-25T01:00:35.973Z,8.77
2022-12-25T01:03:02.517Z,8.88
2022-12-25T01:05:28.929Z,8.92
2022-12-25T01:07:55.322Z,8.91
2022-12-25T01:10:24.954Z,8.82
2022-12-25T01:12:52.883Z,8.85
2022-12-25T01:15:19.522Z,8.91
2022-12-25T01:17:46.505Z,8.97
2022-12-25T01:20:14.730Z,8.97
2022-12-25T01:22:41.882Z,9.00
2022-12-25T01:25:09.265Z,9.01
2022-12-25T01:27:35.731Z,9.02
2022-12-25T01:30:02.275Z,9.07
2022-12-25T01:32:30.169Z,9.12
2022-12-25T01:34:56.654Z,9.14
2022-12-25T01:37:24.649Z,9.16
2022-12-25T01:39:51.283Z,9.25
2022-12-25T01:42:19.627Z,9.26
2022-12-25T01:44:49.055Z,9.32
2022-12-25T01:47:18.064Z,9.31
2022-12-25T01:49:48.164Z,9.29
2022-12-25T01:52:23.603Z,9.35
2022-12-25T01:54:56.198Z,9.39
2022-12-25T01:57:29.017Z,9.46
2022-12-25T01:59:58.696Z,9.39
2022-12-25T02:02:25.771Z,9.50
2022-12-25T02:04:58.356Z,9.56
2022-12-25T02:07:27.701Z,9.53
2022-12-25T02:09:57.057Z,9.57
2022-12-25T02:12:30.331Z,9.57
2022-12-25T02:15:05.372Z,9.56
2022-12-25T02:17:49.585Z,9.56
2022-12-25T02:21:00.800Z,9.57
2022-12-25T02:24:01.470Z,9.56
2022-12-25T02:26:40.770Z,9.62
2022-12-25T02:29:17.313Z,9.59
2022-12-25T02:32:15.890Z,9.64
2022-12-25T02:34:47.301Z,9.56
2022-12-25T02:37:38.436Z,9.43
2022-12-25T02:40:20.625Z,9.43
2022-12-25T02:43:13.371Z,9.38
2022-12-25T02:46:07.306Z,9.36
2022-12-25T02:48:57.092Z,9.39
2022-12-25T02:51:45.663Z,9.38
2022-12-25T02:54:35.205Z,9.38
2022-12-25T02:57:24.193Z,9.39
2022-12-25T03:00:11.965Z,9.33
2022-12-25T03:03:00.245Z,9.39
2022-12-25T03:05:47.905Z,9.31
2022-12-25T03:08:20.381Z,9.33
2022-12-25T03:11:18.393Z,9.29
2022-12-25T03:13:51.339Z,9.28
2022-12-25T03:16:37.212Z,9.39
2022-12-25T03:19:24.181Z,9.44
2022-12-25T03:22:09.610Z,9.35
2022-12-25T03:24:54.397Z,9.38
2022-12-25T03:27:20.851Z,9.44
2022-12-25T03:30:05.957Z,9.43
2022-12-25T03:32:58.742Z,9.46
2022-12-25T03:36:06.072Z,9.46
2022-12-25T03:39:23.570Z,9.50
2022-12-25T03:42:16.010Z,9.54
2022-12-25T03:45:24.285Z,9.59
2022-12-25T03:48:12.245Z,9.63
2022-12-25T03:51:28.932Z,9.69
2022-12-25T03:54:18.693Z,9.63
2022-12-25T03:57:04.752Z,9.71
2022-12-25T03:59:51.411Z,9.77
2022-12-25T04:02:36.535Z,9.74
2022-12-25T04:05:22.207Z,9.79
2022-12-25T04:08:07.053Z,9.79
2022-12-25T04:10:52.072Z,9.83
2022-12-25T04:13:36.902Z,9.81
2022-12-25T04:16:22.468Z,9.84
2022-12-25T04:19:07.715Z,9.87
2022-12-25T04:21:52.691Z,10.01
2022-12-25T04:24:37.629Z,9.95
2022-12-25T04:27:22.956Z,10.01
2022-12-25T04:30:07.791Z,10.14
2022-12-25T04:32:52.581Z,9.95
2022-12-25T04:35:37.440Z,9.90
2022-12-25T04:38:03.877Z,9.93
2022-12-25T04:40:30.282Z,9.93
2022-12-25T04:42:56.670Z,9.90
2022-12-25T04:45:23.118Z,9.86
2022-12-25T04:47:49.533Z,9.83
2022-12-25T04:50:15.890Z,9.84
2022-12-25T04:52:42.359Z,9.87
2022-12-25T04:55:10.377Z,9.83
2022-12-25T04:57:37.305Z,9.81
2022-12-25T05:00:05.185Z,9.77
2022-12-25T05:02:31.808Z,9.76
2022-12-25T05:04:58.453Z,9.80
2022-12-25T05:07:24.950Z,9.83
2022-12-25T05:09:51.431Z,9.81
2022-12-25T05:12:17.871Z,9.81
2022-12-25T05:14:44.390Z,9.81
2022-12-25T05:17:10.834Z,9.83
2022-12-25T05:19:37.209Z,9.84
2022-12-25T05:22:03.695Z,9.79
2022-12-25T05:24:30.197Z,9.79
2022-12-25T05:26:56.626Z,9.76
2022-12-25T05:29:23.016Z,9.77
2022-12-25T05:31:49.486Z,9.77
2022-12-25T05:34:15.981Z,9.84
2022-12-25T05:36:43.537Z,9.81
2022-12-25T05:39:09.957Z,9.81
2022-12-25T05:41:36.366Z,9.81
2022-12-25T05:44:02.857Z,9.83
2022-12-25T05:46:29.431Z,9.90
2022-12-25T05:48:55.864Z,9.87
2022-12-25T05:51:22.599Z,9.93
2022-12-25T05:53:49.053Z,9.98
2022-12-25T05:56:15.426Z,9.94
2022-12-25T05:58:41.865Z,10.05
2022-12-25T06:01:19.431Z,9.98
2022-12-25T06:03:46.060Z,9.89
2022-12-25T06:06:13.115Z,9.89
2022-12-25T06:08:39.668Z,9.95
2022-12-25T06:11:07.169Z,9.93
2022-12-25T06:13:34.083Z,9.94
2022-12-25T06:16:05.026Z,10.00
2022-12-25T06:18:31.568Z,9.95
2022-12-25T06:20:58.043Z,10.07
2022-12-25T06:23:24.525Z,10.04
2022-12-25T06:25:50.956Z,9.97
2022-12-25T06:28:17.454Z,10.00
2022-12-25T06:30:43.857Z,9.97
2022-12-25T06:33:10.340Z,10.01
2022-12-25T06:35:39.428Z,10.00
2022-12-25T06:38:06.098Z,10.04
2022-12-25T06:40:32.568Z,10.02
2022-12-25T06:43:01.322Z,10.12
2022-12-25T06:45:27.807Z,10.08
2022-12-25T06:47:54.274Z,10.04
2022-12-25T06:50:20.755Z,10.07
2022-12-25T06:52:47.283Z,10.04
2022-12-25T06:55:13.735Z,10.04
2022-12-25T06:57:40.140Z,10.00
2022-12-25T07:00:07.475Z,10.10
2022-12-25T07:02:35.289Z,10.10
2022-12-25T07:05:04.271Z,10.15
2022-12-25T07:07:30.667Z,10.14
2022-12-25T07:09:57.055Z,10.17
2022-12-25T07:12:24.246Z,10.15
2022-12-25T07:14:50.702Z,10.14
2022-12-25T07:17:18.174Z,10.18
2022-12-25T07:19:46.147Z,10.18
2022-12-25T07:22:13.185Z,10.15
2022-12-25T07:24:39.680Z,10.14
2022-12-25T07:27:06.325Z,10.18
2022-12-25T07:32:36.565Z,10.31
2022-12-25T07:35:03.135Z,10.31
2022-12-25T07:37:29.473Z,10.26
2022-12-25T07:39:55.875Z,10.22
2022-12-25T07:42:25.298Z,10.26
2022-12-25T07:44:53.313Z,10.22
2022-12-25T07:47:19.682Z,10.20
2022-12-25T07:49:46.140Z,10.25
2022-12-25T07:52:12.580Z,10.31
2022-12-25T07:54:39.015Z,10.26
2022-12-25T07:57:05.486Z,10.25
2022-12-25T07:59:31.872Z,10.28
2022-12-25T08:01:58.408Z,10.38
2022-12-25T08:04:24.991Z,10.35
2022-12-25T08:06:51.366Z,10.31
2022-12-25T08:09:17.780Z,10.32
2022-12-25T08:11:46.903Z,10.32
2022-12-25T08:14:14.020Z,10.33
2022-12-25T08:16:41.680Z,10.41
2022-12-25T08:19:09.303Z,10.42
2022-12-25T08:21:35.683Z,10.42
2022-12-25T08:24:03.073Z,10.35
2022-12-25T08:26:29.514Z,10.32
2022-12-25T08:28:56.007Z,10.25
2022-12-25T08:31:26.215Z,10.21
2022-12-25T08:33:55.188Z,10.17
2022-12-25T08:36:22.740Z,10.20
2022-12-25T08:38:49.395Z,10.20
2022-12-25T08:41:16.469Z,10.21
2022-12-25T08:43:43.539Z,10.17
2022-12-25T08:46:10.145Z,10.21
2022-12-25T08:48:36.759Z,10.22
2022-12-25T08:51:04.718Z,10.25
2022-12-25T08:53:31.148Z,10.28
2022-12-25T08:56:06.007Z,10.25
2022-12-25T08:58:32.725Z,10.25
2022-12-25T09:00:59.859Z,10.28
2022-12-25T09:03:26.804Z,10.28
2022-12-25T09:05:55.308Z,10.28
2022-12-25T09:08:21.974Z,10.26
2022-12-25T09:10:49.230Z,10.22
2022-12-25T09:13:15.612Z,10.22
2022-12-25T09:15:42.104Z,10.20
2022-12-25T09:18:08.547Z,10.11
2022-12-25T09:20:34.908Z,10.10
2022-12-25T09:23:01.299Z,10.08
2022-12-25T09:25:27.803Z,10.05
2022-12-25T09:27:56.287Z,10.02
2022-12-25T09:30:23.056Z,10.04
2022-12-25T09:32:49.523Z,10.05
2022-12-25T09:35:18.574Z,10.00
2022-12-25T09:37:45.274Z,10.04
2022-12-25T09:40:21.206Z,9.95
2022-12-25T09:42:48.928Z,9.94
2022-12-25T09:45:25.482Z,9.94
2022-12-25T09:47:56.330Z,9.86
2022-12-25T09:50:46.047Z,9.90
2022-12-25T09:53:25.072Z,9.83
2022-12-25T09:56:15.167Z,9.81
2022-12-25T09:58:41.628Z,9.70
2022-12-25T10:01:19.714Z,9.71
2022-12-25T10:03:46.188Z,9.70
2022-12-25T10:06:25.503Z,9.70
2022-12-25T10:09:20.983Z,9.70
2022-12-25T10:11:50.130Z,9.80
2022-12-25T10:14:30.978Z,9.79
2022-12-25T10:17:19.048Z,9.76
2022-12-25T10:20:08.861Z,9.77
2022-12-25T10:22:40.590Z,9.83
2022-12-25T10:25:16.361Z,9.83
2022-12-25T10:27:44.088Z,9.80
2022-12-25T10:30:15.845Z,9.77
2022-12-25T10:32:43.285Z,9.77
2022-12-25T10:35:15.264Z,9.77
2022-12-25T10:37:43.200Z,9.71
2022-12-25T10:40:50.279Z,9.71
2022-12-25T10:43:45.335Z,9.80
2022-12-25T10:46:13.565Z,9.79
2022-12-25T10:48:49.495Z,9.81
2022-12-25T10:51:28.982Z,9.81
2022-12-25T10:53:55.487Z,9.83
2022-12-25T10:56:21.909Z,9.84
2022-12-25T10:58:48.289Z,9.81
2022-12-25T11:01:15.243Z,9.81
2022-12-25T11:03:46.913Z,9.80
2022-12-25T11:06:42.617Z,9.87
2022-12-25T11:09:16.633Z,9.87
2022-12-25T11:11:43.127Z,9.91
2022-12-25T11:14:17.745Z,9.94
2022-12-25T11:16:44.899Z,9.93
2022-12-25T11:19:26.677Z,9.93
2022-12-25T11:21:55.697Z,9.90
2022-12-25T11:24:25.399Z,10.00
2022-12-25T11:26:55.154Z,9.97
2022-12-25T11:29:52.663Z,9.98
2022-12-25T11:32:35.269Z,10.02
2022-12-25T11:35:02.836Z,10.01
2022-12-25T11:37:38.337Z,10.05
2022-12-25T11:40:06.403Z,10.14
2022-12-25T11:42:44.311Z,10.08
2022-12-25T11:45:13.267Z,10.08
2022-12-25T11:47:54.280Z,10.14
2022-12-25T11:50:34.221Z,10.08
2022-12-25T11:53:22.081Z,10.11
2022-12-25T11:55:56.342Z,10.17
2022-12-25T11:58:28.981Z,10.21
2022-12-25T12:00:58.768Z,10.21
2022-12-25T12:03:35.238Z,10.29
2022-12-25T12:06:06.996Z,10.32
2022-12-25T12:08:35.657Z,10.24
2022-12-25T12:11:17.306Z,10.29
2022-12-25T12:14:03.922Z,10.35
2022-12-25T12:16:30.697Z,10.46
2022-12-25T12:18:57.332Z,10.45
2022-12-25T12:21:27.261Z,10.48
2022-12-25T12:24:03.960Z,10.41
2022-12-25T12:26:36.731Z,10.48
2022-12-25T12:29:05.986Z,10.53
2022-12-25T12:31:45.372Z,10.53
2022-12-25T12:34:43.092Z,10.55
2022-12-25T12:37:25.153Z,10.55
2022-12-25T12:39:54.525Z,10.62
2022-12-25T12:42:26.076Z,10.56
2022-12-25T12:44:55.402Z,10.56
2022-12-25T12:47:52.065Z,10.60
2022-12-25T12:50:45.539Z,10.62
2022-12-25T12:53:30.565Z,10.63
2022-12-25T12:55:57.190Z,10.65
2022-12-25T12:58:35.455Z,10.69
2022-12-25T13:01:23.250Z,10.72
2022-12-25T13:04:00.519Z,10.75
2022-12-25T13:06:45.179Z,10.73
2022-12-25T13:09:41.052Z,10.83
2022-12-25T13:12:08.336Z,10.80
2022-12-25T13:14:35.543Z,10.84
2022-12-25T13:17:02.058Z,10.84
2022-12-25T13:19:29.212Z,10.91
2022-12-25T13:21:58.285Z,10.91
2022-12-25T13:24:30.595Z,10.93
2022-12-25T13:26:57.293Z,10.97
2022-12-25T13:29:32.042Z,10.99
2022-12-25T13:32:00.550Z,11.04
2022-12-25T13:34:35.706Z,11.03
2022-12-25T13:37:17.695Z,11.11
2022-12-25T13:39:53.616Z,11.13
2022-12-25T13:42:23.779Z,11.13
2022-12-25T13:45:01.708Z,11.14
2022-12-25T13:47:36.916Z,11.23
2022-12-25T13:50:28.135Z,11.21
2022-12-25T13:52:56.663Z,11.23
2022-12-25T13:55:26.149Z,11.27
2022-12-25T13:57:55.322Z,11.31
2022-12-25T14:00:23.512Z,11.27
2022-12-25T14:02:51.568Z,11.26
2022-12-25T14:05:43.069Z,11.31
2022-12-25T14:08:22.114Z,11.31
2022-12-25T14:10:51.603Z,11.32
2022-12-25T14:13:20.999Z,11.34
2022-12-25T14:15:48.798Z,11.42
2022-12-25T14:18:19.200Z,11.37
2022-12-25T14:20:59.446Z,11.37
2022-12-25T14:23:26.889Z,11.37
2022-12-25T14:25:53.639Z,11.34
2022-12-25T14:28:34.181Z,11.35
2022-12-25T14:31:02.533Z,11.34
2022-12-25T14:33:36.735Z,11.35
2022-12-25T14:36:03.927Z,11.38
2022-12-25T14:38:35.159Z,11.34
2022-12-25T14:41:19.826Z,11.41
2022-12-25T14:43:55.355Z,11.39
2022-12-25T14:46:27.348Z,11.41
2022-12-25T14:49:06.760Z,11.41
2022-12-25T14:51:38.116Z,11.45
2022-12-25T14:54:16.840Z,11.45
2022-12-25T14:56:48.271Z,11.49
2022-12-25T14:59:19.533Z,11.52
2022-12-25T15:01:52.853Z,11.55
2022-12-25T15:04:20.659Z,11.62
2022-12-25T15:07:06.935Z,11.65
2022-12-25T15:09:35.851Z,11.61
2022-12-25T15:12:02.411Z,11.66
2022-12-25T15:14:31.159Z,11.70
2022-12-25T15:17:00.620Z,11.65
2022-12-25T15:19:36.964Z,11.66
2022-12-25T15:22:04.603Z,11.69
2022-12-25T15:24:31.170Z,11.72
2022-12-25T15:27:00.109Z,11.72
2022-12-25T15:29:59.739Z,11.76
2022-12-25T15:32:21.944Z,11.79
2022-12-25T15:34:49.871Z,11.79
2022-12-25T15:37:18.189Z,11.83
2022-12-25T15:39:45.196Z,11.86
2022-12-25T15:42:21.195Z,11.89
2022-12-25T15:44:47.701Z,11.93
2022-12-25T15:47:17.520Z,11.99
2022-12-25T15:49:43.965Z,12.02
2022-12-25T15:52:14.925Z,12.02
2022-12-25T15:54:41.431Z,12.03
2022-12-25T15:57:18.720Z,12.00
2022-12-25T15:59:45.231Z,11.99
2022-12-25T16:02:18.063Z,12.00
2022-12-25T16:04:44.706Z,11.99
2022-12-25T16:07:16.381Z,12.00
2022-12-25T16:09:43.089Z,12.03
2022-12-25T16:12:09.849Z,12.09
2022-12-25T16:14:36.721Z,12.09
2022-12-25T16:17:04.483Z,12.13
2022-12-25T16:19:31.450Z,12.09
2022-12-25T16:21:58.042Z,12.05
2022-12-25T16:24:24.511Z,12.12
2022-12-25T16:26:51.005Z,12.07
2022-12-25T16:29:17.498Z,12.05
2022-12-25T16:31:44.303Z,12.06
2022-12-25T16:34:10.776Z,12.07
2022-12-25T16:36:37.338Z,12.06
2022-12-25T16:39:05.257Z,12.07
2022-12-25T16:41:31.728Z,12.03
2022-12-25T16:43:58.381Z,12.02
2022-12-25T16:46:24.823Z,12.03
2022-12-25T16:48:51.262Z,12.06
2022-12-25T16:51:20.443Z,11.96
2022-12-25T16:53:47.263Z,12.00
2022-12-25T16:56:17.403Z,12.00
2022-12-25T16:58:46.597Z,12.06
2022-12-25T17:01:15.691Z,12.03
2022-12-25T17:03:42.373Z,12.06
2022-12-25T17:06:23.122Z,12.09
2022-12-25T17:08:50.848Z,12.12
2022-12-25T17:11:26.126Z,12.06
2022-12-25T17:13:53.893Z,11.99
2022-12-25T17:16:24.587Z,12.00
2022-12-25T17:18:56.083Z,11.97
2022-12-25T17:21:23.562Z,12.00
2022-12-25T17:23:50.363Z,11.99
2022-12-25T17:26:16.768Z,12.02
2022-12-25T17:28:43.210Z,12.07
2022-12-25T17:31:11.435Z,12.07
2022-12-25T17:33:39.638Z,12.10
2022-12-25T17:36:09.895Z,12.20
2022-12-25T17:38:37.344Z,12.21
2022-12-25T17:41:05.573Z,12.24
2022-12-25T17:43:33.452Z,12.24
2022-12-25T17:46:07.634Z,12.30
2022-12-25T17:48:37.637Z,12.28
2022-12-25T17:51:06.383Z,12.33
2022-12-25T17:53:35.762Z,12.40
2022-12-25T17:56:02.259Z,12.28
2022-12-25T17:58:28.987Z,12.27
2022-12-25T18:00:55.523Z,12.30
2022-12-25T18:03:22.615Z,12.33
2022-12-25T18:05:49.363Z,12.31
2022-12-25T18:08:15.858Z,12.34
2022-12-25T18:10:43.768Z,12.41
2022-12-25T18:13:11.370Z,12.44
2022-12-25T18:15:41.453Z,12.46
2022-12-25T18:18:08.714Z,12.46
2022-12-25T18:20:39.924Z,12.46
2022-12-25T18:23:07.650Z,12.48
2022-12-25T18:25:34.544Z,12.53
2022-12-25T18:28:03.015Z,12.53
2022-12-25T18:30:29.547Z,12.50
2022-12-25T18:32:55.939Z,12.44
2022-12-25T18:35:22.582Z,12.47
2022-12-25T18:37:48.977Z,12.36
2022-12-25T18:40:15.418Z,12.34
2022-12-25T18:42:43.761Z,12.43
2022-12-25T18:45:13.325Z,12.47
2022-12-25T18:47:40.539Z,12.53
2022-12-25T18:50:07.927Z,12.50
2022-12-25T18:52:48.462Z,12.50
2022-12-25T18:57:36.088Z,12.46
2022-12-25T19:00:04.087Z,12.43
2022-12-25T19:02:30.590Z,12.43
2022-12-25T19:04:57.069Z,12.37
2022-12-25T19:07:23.751Z,12.43
2022-12-25T19:09:50.784Z,12.44
2022-12-25T19:12:17.766Z,12.41
2022-12-25T19:14:47.330Z,12.44
2022-12-25T19:17:15.161Z,12.46
2022-12-25T19:19:41.660Z,12.46
2022-12-25T19:22:08.462Z,12.41
2022-12-25T19:24:36.512Z,12.51
2022-12-25T19:27:03.713Z,12.51
2022-12-25T19:29:30.354Z,12.54
2022-12-25T19:31:57.039Z,12.58
2022-12-25T19:34:23.706Z,12.61
2022-12-25T19:36:50.811Z,12.67
2022-12-25T19:39:17.317Z,12.74
2022-12-25T19:41:44.456Z,12.81
2022-12-25T19:44:10.882Z,12.92
2022-12-25T19:46:40.552Z,12.91
2022-12-25T19:49:11.265Z,12.92
2022-12-25T19:51:40.453Z,12.95
2022-12-25T19:54:07.866Z,13.00
2022-12-25T19:56:34.649Z,13.03
2022-12-25T19:59:01.192Z,13.05
2022-12-25T20:01:29.597Z,13.09
2022-12-25T20:03:56.248Z,13.07
2022-12-25T20:06:28.301Z,13.15
2022-12-25T20:08:57.153Z,13.16
2022-12-25T20:11:26.597Z,13.25
2022-12-25T20:13:53.176Z,13.22
2022-12-25T20:16:20.415Z,13.25
2022-12-25T20:18:46.984Z,13.26
2022-12-25T20:21:16.415Z,13.22
2022-12-25T20:23:44.304Z,13.23
2022-12-25T20:26:12.023Z,13.19
2022-12-25T20:28:39.527Z,13.29
2022-12-25T20:31:21.311Z,13.23
2022-12-25T20:33:48.326Z,13.26
2022-12-25T20:36:15.034Z,13.22
2022-12-25T20:38:41.830Z,13.23
2022-12-25T20:41:28.376Z,13.19
2022-12-25T20:43:55.599Z,13.11
2022-12-25T20:46:22.612Z,13.03
2022-12-25T20:48:49.204Z,13.06
2022-12-25T20:51:18.658Z,12.93
2022-12-25T20:53:45.769Z,12.93
2022-12-25T20:56:14.150Z,12.88
2022-12-25T20:58:42.449Z,12.79
2022-12-25T21:01:18.112Z,12.82
2022-12-25T21:03:45.233Z,12.72
2022-12-25T21:06:12.369Z,12.72
2022-12-25T21:08:40.807Z,12.61
2022-12-25T21:11:07.616Z,12.63
2022-12-25T21:13:36.306Z,12.54
2022-12-25T21:16:08.178Z,12.51
2022-12-25T21:18:35.271Z,12.47
2022-12-25T21:21:07.185Z,12.44
2022-12-25T21:23:37.013Z,12.40
2022-12-25T21:26:18.386Z,12.37
2022-12-25T21:28:46.339Z,12.46
2022-12-25T21:31:13.279Z,12.53
2022-12-25T21:33:53.843Z,12.57
2022-12-25T21:36:25.118Z,12.54
2022-12-25T21:39:02.750Z,12.50
2022-12-25T21:41:32.398Z,12.48
2022-12-25T21:44:00.195Z,12.58
2022-12-25T21:46:27.517Z,12.54
2022-12-25T21:48:54.781Z,12.51
2022-12-25T21:51:46.576Z,12.53
2022-12-25T21:54:14.369Z,12.53
2022-12-25T21:56:45.301Z,12.53
2022-12-25T21:59:14.562Z,12.57
2022-12-25T22:01:49.676Z,12.58
2022-12-25T22:04:18.335Z,12.64
2022-12-25T22:07:04.146Z,12.72
2022-12-25T22:09:30.983Z,12.75
2022-12-25T22:12:16.812Z,12.76
2022-12-25T22:14:55.332Z,12.71
2022-12-25T22:17:59.857Z,12.82
2022-12-25T22:20:30.529Z,12.95
2022-12-25T22:22:58.316Z,12.93
2022-12-25T22:25:25.046Z,12.92
2022-12-25T22:27:52.331Z,12.99
2022-12-25T22:30:22.047Z,13.00
2022-12-25T22:32:49.401Z,13.00
2022-12-25T22:35:16.746Z,12.96
2022-12-25T22:37:43.785Z,13.13
2022-12-25T22:40:13.924Z,13.23
2022-12-25T22:42:41.350Z,13.48
2022-12-25T22:45:08.630Z,13.42
2022-12-25T22:47:35.345Z,13.51
2022-12-25T22:50:01.922Z,13.46
2022-12-25T22:52:28.359Z,13.53
2022-12-25T22:54:56.032Z,13.37
2022-12-25T22:57:22.744Z,13.42
2022-12-25T22:59:51.682Z,13.54
2022-12-25T23:02:18.530Z,13.70
2022-12-25T23:04:45.090Z,13.70
2022-12-25T23:07:14.235Z,13.67
2022-12-25T23:09:40.957Z,13.75
2022-12-25T23:12:07.488Z,13.88
2022-12-25T23:14:40.080Z,13.85
2022-12-25T23:17:34.348Z,13.94
2022-12-25T23:20:19.314Z,14.08
2022-12-25T23:23:05.176Z,14.01
2022-12-25T23:25:52.390Z,13.95
2022-12-25T23:28:39.120Z,13.90
2022-12-25T23:31:06.733Z,13.90
2022-12-25T23:33:33.258Z,13.84
2022-12-25T23:35:59.734Z,13.81
2022-12-25T23:38:26.239Z,13.74
2022-12-25T23:40:52.749Z,13.70
2022-12-25T23:43:19.754Z,13.65
2022-12-25T23:45:46.187Z,13.39
2022-12-25T23:48:12.577Z,13.00
2022-12-25T23:50:38.966Z,12.79
2022-12-25T23:53:05.440Z,12.81
2022-12-25T23:55:33.564Z,12.81
2022-12-25T23:57:59.941Z,12.86
